createdAt,value
2019-03-28T00:01:43.265Z,102928.56
2019-03-28T00:04:48.815Z,102932.56
2019-03-28T00:07:57.156Z,102934.38
2019-03-28T00:11:02.879Z,102938.86
2019-03-28T00:14:08.737Z,102934.42
2019-03-28T00:17:50.176Z,102935.75
2019-03-28T00:20:57.679Z,102939.26
2019-03-28T00:24:25.102Z,102936.55
2019-03-28T00:27:33.609Z,102932.23
2019-03-28T00:30:44.462Z,102933.06
2019-03-28T00:33:58.431Z,102944.20
2019-03-28T00:37:09.134Z,102950.72
2019-03-28T00:40:14.853Z,102952.52
2019-03-28T00:43:20.094Z,102968.34
2019-03-28T00:46:32.819Z,102974.45
2019-03-28T00:49:38.333Z,102956.42
2019-03-28T00:52:55.585Z,102967.02
2019-03-28T00:56:03.491Z,102971.91
2019-03-28T00:59:10.539Z,102967.37
2019-03-28T01:02:19.377Z,102966.84
2019-03-28T01:05:34.161Z,102963.86
2019-03-28T01:09:15.431Z,102965.06
2019-03-28T01:12:29.381Z,102959.87
2019-03-28T01:15:49.997Z,102956.30
2019-03-28T01:19:17.079Z,102953.20
2019-03-28T01:22:26.342Z,102958.42
2019-03-28T01:25:32.358Z,102953.95
2019-03-28T01:28:41.190Z,102950.88
2019-03-28T01:32:06.905Z,102945.98
2019-03-28T01:35:39.582Z,102952.68
2019-03-28T01:38:45.250Z,102948.70
2019-03-28T01:45:23.599Z,102950.09
2019-03-28T01:48:38.277Z,102950.17
2019-03-28T01:51:54.109Z,102954.12
2019-03-28T01:55:02.459Z,102953.73
2019-03-28T01:58:28.498Z,102965.27
2019-03-28T02:01:36.496Z,102958.66
2019-03-28T02:04:42.459Z,102962.09
2019-03-28T02:07:53.737Z,102965.16
2019-03-28T02:11:02.198Z,102969.62
2019-03-28T02:14:07.884Z,102964.72
2019-03-28T02:17:21.362Z,102963.02
2019-03-28T02:23:47.806Z,102964.77
2019-03-28T02:26:59.501Z,102960.80
2019-03-28T02:30:05.737Z,102955.09
2019-03-28T02:33:26.319Z,102957.24
2019-03-28T02:36:57.179Z,102959.42
2019-03-28T02:40:05.861Z,102966.89
2019-03-28T02:43:15.936Z,102966.98
2019-03-28T02:46:27.486Z,102955.05
2019-03-28T03:05:45.927Z,102958.10
2019-03-28T03:09:11.143Z,102964.24
2019-03-28T03:12:19.451Z,102957.24
2019-03-28T03:15:34.710Z,102962.47
2019-03-28T03:18:45.461Z,102960.75
2019-03-28T03:26:03.794Z,102950.95
2019-03-28T03:29:11.901Z,102956.58
2019-03-28T03:32:21.391Z,102956.97
2019-03-28T03:39:36.338Z,102958.42
2019-03-28T03:42:48.239Z,102946.92
2019-03-28T03:45:55.434Z,102955.37
2019-03-28T03:49:02.968Z,102956.66
2019-03-28T03:52:08.582Z,102947.30
2019-03-28T03:55:32.403Z,102949.53
2019-03-28T03:58:47.138Z,102953.52
2019-03-28T04:02:05.872Z,102956.58
2019-03-28T04:05:14.497Z,102960.06
2019-03-28T04:08:24.322Z,102961.89
2019-03-28T04:11:33.175Z,102966.36
2019-03-28T04:14:49.505Z,102958.42
2019-03-28T04:18:03.640Z,102976.53
2019-03-28T04:21:14.397Z,102972.88
2019-03-28T04:24:22.718Z,102971.16
2019-03-28T04:28:07.155Z,102972.48
2019-03-28T04:31:15.903Z,102974.44
2019-03-28T04:34:21.599Z,102975.26
2019-03-28T04:37:27.211Z,102977.56
2019-03-28T04:40:41.493Z,102989.00
2019-03-28T04:43:46.909Z,102991.15
2019-03-28T04:46:52.842Z,102985.51
2019-03-28T04:50:00.580Z,102988.60
2019-03-28T04:53:06.118Z,102987.28
2019-03-28T04:56:14.621Z,102991.67
2019-03-28T04:59:22.196Z,102997.05
2019-03-28T05:02:31.346Z,102999.72
2019-03-28T05:05:37.559Z,103006.48
2019-03-28T05:08:45.335Z,103004.41
2019-03-28T05:12:29.798Z,103010.08
2019-03-28T05:15:52.658Z,103008.41
2019-03-28T05:19:03.428Z,103011.86
2019-03-28T05:22:11.336Z,103016.75
2019-03-28T05:25:19.849Z,103020.83
2019-03-28T05:28:29.454Z,103025.63
2019-03-28T05:31:37.045Z,103031.75
2019-03-28T05:34:45.570Z,103032.15
2019-03-28T05:37:51.262Z,103042.89
2019-03-28T05:41:07.068Z,103042.83
2019-03-28T05:44:15.252Z,103041.84
2019-03-28T05:47:22.290Z,103050.82
2019-03-28T05:50:39.960Z,103043.80
2019-03-28T05:54:03.573Z,103043.90
2019-03-28T05:57:11.205Z,103046.63
2019-03-28T06:00:16.862Z,103047.70
2019-03-28T06:03:22.362Z,103057.37
2019-03-28T06:06:28.115Z,103055.27
2019-03-28T06:09:33.939Z,103057.89
2019-03-28T06:12:39.627Z,103058.84
2019-03-28T06:15:46.384Z,103066.72
2019-03-28T06:26:29.679Z,103082.97
2019-03-28T06:29:35.124Z,103084.24
2019-03-28T06:33:04.510Z,103083.44
2019-03-28T06:36:09.989Z,103086.98
2019-03-28T06:40:18.407Z,103091.19
2019-03-28T06:43:26.285Z,103095.23
2019-03-28T06:46:31.662Z,103097.84
2019-03-28T06:49:37.071Z,103097.37
2019-03-28T06:52:53.222Z,103102.55
2019-03-28T06:55:58.761Z,103100.27
2019-03-28T06:59:04.184Z,103104.00
2019-03-28T07:02:10.441Z,103104.27
2019-03-28T07:05:16.254Z,103094.16
2019-03-28T07:08:21.673Z,103091.06
2019-03-28T07:11:46.473Z,103083.65
2019-03-28T07:14:51.866Z,103076.16
2019-03-28T07:17:57.561Z,103084.45
2019-03-28T07:21:05.549Z,103091.67
2019-03-28T07:24:19.887Z,103089.02
2019-03-28T07:27:25.331Z,103082.11
2019-03-28T07:30:30.855Z,103089.65
2019-03-28T07:40:49.538Z,103099.19
2019-03-28T07:43:56.287Z,103097.70
2019-03-28T07:59:19.606Z,103111.56
2019-03-28T08:02:36.798Z,103112.73
2019-03-28T08:05:51.908Z,103115.61
2019-03-28T08:13:47.683Z,103123.66
2019-03-28T08:16:54.403Z,103126.41
2019-03-28T08:24:44.114Z,103126.70
2019-03-28T08:27:49.549Z,103152.03
2019-03-28T08:30:54.890Z,103153.08
2019-03-28T08:34:02.986Z,103151.93
2019-03-28T08:37:24.943Z,103141.83
2019-03-28T08:40:39.495Z,103146.25
2019-03-28T08:43:43.385Z,103148.22
2019-03-28T08:47:00.940Z,103156.31
2019-03-28T08:50:13.227Z,103156.14
2019-03-28T08:53:18.493Z,103165.84
2019-03-28T08:56:24.041Z,103176.28
2019-03-28T08:59:29.385Z,103170.95
2019-03-28T09:02:35.047Z,103168.62
2019-03-28T09:05:42.942Z,103190.80
2019-03-28T09:09:09.940Z,103196.22
2019-03-28T09:12:41.768Z,103189.33
2019-03-28T09:15:53.050Z,103189.23
2019-03-28T09:19:15.951Z,103188.84
2019-03-28T09:22:22.711Z,103194.97
2019-03-28T09:29:13.496Z,103207.75
2019-03-28T09:32:58.593Z,103207.81
2019-03-28T09:36:07.525Z,103209.55
2019-03-28T09:39:15.981Z,103210.13
2019-03-28T09:42:31.319Z,103207.92
2019-03-28T09:45:41.622Z,103212.05
2019-03-28T09:56:16.765Z,103211.08
2019-03-28T10:02:44.283Z,103208.23
2019-03-28T10:06:40.621Z,103216.37
2019-03-28T10:09:55.878Z,103215.59
2019-03-28T10:13:36.488Z,103207.41
2019-03-28T10:16:42.085Z,103208.05
2019-03-28T10:19:53.011Z,103211.69
2019-03-28T10:23:05.812Z,103215.20
2019-03-28T10:26:11.360Z,103216.79
2019-03-28T10:29:17.937Z,103229.31
2019-03-28T10:35:48.054Z,103229.25
2019-03-28T10:38:59.406Z,103234.93
2019-03-28T10:42:07.165Z,103232.33
2019-03-28T10:45:14.864Z,103232.19
2019-03-28T10:48:38.862Z,103233.53
2019-03-28T10:51:50.513Z,103226.16
2019-03-28T11:11:40.404Z,103230.60
2019-03-28T11:14:46.390Z,103228.11
2019-03-28T11:18:26.379Z,103225.32
2019-03-28T11:29:59.551Z,103225.39
2019-03-28T11:33:27.919Z,103220.59
2019-03-28T11:36:37.869Z,103225.42
2019-03-28T11:39:51.108Z,103222.77
2019-03-28T11:44:11.599Z,103227.04
2019-03-28T11:55:13.937Z,103207.36
2019-03-28T12:02:42.556Z,103205.41
2019-03-28T12:06:50.652Z,103205.06
2019-03-28T12:22:40.787Z,103194.84
2019-03-28T12:25:58.071Z,103187.69
2019-03-28T12:29:06.595Z,103183.20
2019-03-28T12:32:31.633Z,103180.98
2019-03-28T12:35:37.530Z,103184.61
2019-03-28T12:42:11.160Z,103185.92
2019-03-28T12:45:17.275Z,103184.50
2019-03-28T12:51:31.262Z,103186.34
2019-03-28T12:54:36.466Z,103181.17
2019-03-28T12:57:41.833Z,103137.16
2019-03-28T13:00:50.998Z,103162.11
2019-03-28T13:03:56.157Z,103163.94
2019-03-28T13:07:01.491Z,103169.70
2019-03-28T13:10:07.979Z,103170.56
2019-03-28T13:13:13.411Z,103165.63
2019-03-28T13:16:19.004Z,103166.06
2019-03-28T13:19:37.528Z,103158.98
2019-03-28T13:22:43.232Z,103157.23
2019-03-28T13:25:48.445Z,103157.26
2019-03-28T13:28:54.091Z,103154.61
2019-03-28T13:31:59.810Z,103155.92
2019-03-28T13:42:05.876Z,103164.27
2019-03-28T13:48:30.465Z,103158.09
2019-03-28T13:51:35.707Z,103153.66
2019-03-28T13:54:40.894Z,103150.09
2019-03-28T13:57:47.864Z,103146.51
2019-03-28T14:00:56.640Z,103145.22
2019-03-28T14:04:04.671Z,103142.11
2019-03-28T14:07:10.009Z,103131.41
2019-03-28T14:10:21.850Z,103130.09
2019-03-28T14:13:32.677Z,103120.28
2019-03-28T14:16:40.692Z,103118.05
2019-03-28T14:19:46.016Z,103117.16
2019-03-28T14:22:57.557Z,103122.06
2019-03-28T14:26:03.142Z,103117.61
2019-03-28T14:29:16.606Z,103117.61
2019-03-28T14:32:22.459Z,103121.62
2019-03-28T14:35:33.718Z,103123.86
2019-03-28T14:39:13.081Z,103121.63
2019-03-28T14:42:19.914Z,103130.06
2019-03-28T14:45:51.842Z,103130.06
2019-03-28T14:48:57.038Z,103126.44
2019-03-28T14:52:03.840Z,103118.92
2019-03-28T14:55:11.352Z,103118.92
2019-03-28T14:58:21.975Z,103117.53
2019-03-28T15:01:33.725Z,103124.19
2019-03-28T15:04:47.435Z,103124.20
2019-03-28T15:07:52.815Z,103124.20
2019-03-28T15:11:51.896Z,103127.80
2019-03-28T15:22:36.422Z,103118.95
2019-03-28T15:25:41.401Z,103123.42
2019-03-28T15:28:49.488Z,103117.17
2019-03-28T15:31:59.665Z,103122.49
2019-03-28T15:35:24.371Z,103131.86
2019-03-28T15:42:36.558Z,103134.94
2019-03-28T15:57:25.498Z,103135.89
2019-03-28T16:00:48.329Z,103127.42
2019-03-28T16:03:56.173Z,103127.86
2019-03-28T16:07:00.989Z,103132.76
2019-03-28T16:10:06.607Z,103188.44
2019-03-28T16:13:11.506Z,103143.86
2019-03-28T16:16:16.419Z,103139.30
2019-03-28T16:19:21.271Z,103139.30
2019-03-28T16:22:26.104Z,103153.13
2019-03-28T16:25:32.455Z,103149.57
2019-03-28T16:28:37.347Z,103152.30
2019-03-28T16:31:42.186Z,103150.47
2019-03-28T16:34:47.022Z,103160.66
2019-03-28T16:37:51.884Z,103161.92
2019-03-28T16:40:58.822Z,103161.02
2019-03-28T16:44:03.752Z,103161.91
2019-03-28T16:47:08.607Z,103167.70
2019-03-28T16:50:13.779Z,103158.78
2019-03-28T16:53:18.596Z,103154.81
2019-03-28T16:56:23.444Z,103161.45
2019-03-28T16:59:28.313Z,103163.80
2019-03-28T17:02:33.171Z,103158.91
2019-03-28T17:05:39.313Z,103160.22
2019-03-28T17:08:45.656Z,103159.84
2019-03-28T17:11:50.561Z,103161.20
2019-03-28T17:14:55.406Z,103160.31
2019-03-28T17:18:00.233Z,103157.22
2019-03-28T17:21:06.439Z,103161.16
2019-03-28T17:24:11.315Z,103157.93
2019-03-28T17:27:16.160Z,103161.38
2019-03-28T17:30:21.146Z,103157.35
2019-03-28T17:33:25.986Z,103156.73
2019-03-28T17:36:30.834Z,103159.75
2019-03-28T17:39:35.667Z,103153.44
2019-03-28T17:42:40.561Z,103156.92
2019-03-28T17:45:45.426Z,103159.50
2019-03-28T17:48:50.258Z,103162.98
2019-03-28T17:51:55.243Z,103167.78
2019-03-28T17:55:01.369Z,103164.12
2019-03-28T17:58:06.240Z,103172.88
2019-03-28T18:01:11.139Z,103176.32
2019-03-28T18:04:22.706Z,103180.67
2019-03-28T18:07:22.742Z,103184.55
2019-03-28T18:10:27.596Z,103191.63
2019-03-28T18:13:32.479Z,103192.89
2019-03-28T18:16:37.323Z,103206.14
2019-03-28T18:19:42.189Z,103210.47
2019-03-28T18:22:48.596Z,103215.23
2019-03-28T18:25:53.990Z,103218.66
2019-03-28T18:28:58.835Z,103220.28
2019-03-28T18:32:03.721Z,103227.66
2019-03-28T18:35:09.477Z,103231.48
2019-03-28T18:38:17.318Z,103234.84
2019-03-28T18:41:22.192Z,103239.17
2019-03-28T18:44:29.801Z,103241.70
2019-03-28T18:47:34.699Z,103232.67
2019-03-28T18:50:41.142Z,103239.61
2019-03-28T18:53:46.235Z,103243.39
2019-03-28T18:56:51.089Z,103245.50
2019-03-28T18:59:56.002Z,103245.83
2019-03-28T19:03:00.875Z,103254.03
2019-03-28T19:06:05.841Z,103253.84
2019-03-28T19:09:10.701Z,103256.37
2019-03-28T19:12:15.646Z,103267.72
2019-03-28T19:15:20.544Z,103266.27
2019-03-28T19:18:25.730Z,103259.90
2019-03-28T19:21:30.779Z,103264.63
2019-03-28T19:24:35.725Z,103260.58
2019-03-28T19:27:40.798Z,103258.73
2019-03-28T19:30:47.044Z,103261.23
2019-03-28T19:33:51.968Z,103262.42
2019-03-28T19:36:57.952Z,103270.73
2019-03-28T19:40:06.943Z,103270.13
2019-03-28T19:43:20.427Z,103264.66
2019-03-28T19:46:17.990Z,103262.02
2019-03-28T19:49:23.490Z,103272.00
2019-03-28T19:52:28.550Z,103266.59
2019-03-28T19:55:33.444Z,103270.83
2019-03-28T19:58:38.425Z,103266.34
2019-03-28T20:01:43.354Z,103272.44
2019-03-28T20:04:48.330Z,103276.30
2019-03-28T20:07:53.260Z,103271.34
2019-03-28T20:10:58.176Z,103269.95
2019-03-28T20:14:03.077Z,103268.06
2019-03-28T20:17:07.954Z,103268.37
2019-03-28T20:20:13.056Z,103264.34
2019-03-28T20:23:17.921Z,103265.97
2019-03-28T20:26:22.819Z,103264.98
2019-03-28T20:29:27.714Z,103261.81
2019-03-28T20:32:32.588Z,103258.23
2019-03-28T20:35:40.623Z,103257.72
2019-03-28T20:38:48.575Z,103255.47
2019-03-28T20:41:52.162Z,103262.51
2019-03-28T20:44:57.100Z,103261.19
2019-03-28T20:48:02.049Z,103261.13
2019-03-28T20:51:07.025Z,103261.00
2019-03-28T20:54:11.895Z,103267.08
2019-03-28T20:57:16.812Z,103266.56
2019-03-28T21:00:41.752Z,103264.30
2019-03-28T21:03:49.449Z,103266.86
2019-03-28T21:06:53.326Z,103272.67
2019-03-28T21:09:58.193Z,103273.03
2019-03-28T21:13:04.859Z,103269.45
2019-03-28T21:16:09.697Z,103264.93
2019-03-28T21:19:14.674Z,103261.77
2019-03-28T21:22:20.844Z,103263.97
2019-03-28T21:25:25.770Z,103262.97
2019-03-28T21:28:30.601Z,103260.67
2019-03-28T21:31:48.867Z,103263.74
2019-03-28T21:34:42.022Z,103257.55
2019-03-28T21:37:46.860Z,103268.59
2019-03-28T21:40:51.743Z,103265.84
2019-03-28T21:43:56.915Z,103259.12
2019-03-28T21:47:01.739Z,103256.03
2019-03-28T21:50:06.669Z,103250.64
2019-03-28T21:53:14.540Z,103253.28
2019-03-28T21:56:19.383Z,103251.87
2019-03-28T21:59:24.215Z,103245.41
2019-03-28T22:02:29.680Z,103249.70
2019-03-28T22:14:20.081Z,103237.02
2019-03-28T22:18:17.909Z,103241.50
2019-03-28T22:25:22.511Z,103242.72
2019-03-28T22:28:33.083Z,103236.03
2019-03-28T22:31:44.583Z,103234.64
2019-03-28T22:42:31.310Z,103234.55
2019-03-28T22:58:13.925Z,103220.56
2019-03-28T23:01:41.219Z,103217.47
2019-03-28T23:09:40.418Z,103216.91
2019-03-28T23:21:17.979Z,103215.14
2019-03-28T23:24:44.019Z,103206.62
2019-03-28T23:31:50.829Z,103200.91
2019-03-28T23:39:53.400Z,103194.37
2019-03-28T23:43:06.762Z,103186.41
2019-03-28T23:50:27.725Z,103179.14
